Time;durP1;ratioP1;P1;durP2;ratioP2;P2;SDS_P1;SDS_P2;PMS_P1;PMS_P2;Temp;Humidity;BMP_temperature;BMP_pressure;BME280_temperature;BME280_humidity;BME280_pressure;Samples;Min_cycle;Max_cycle;Signal;HPM_P1;HPM_P2
2023/01/19 00:02:00;;;;;;;11.50;8.20;;;;;;;2.66;71.17;94407.53;5017145;28;20219;-88
2023/01/19 00:04:26;;;;;;;10.70;7.67;;;;;;;2.63;70.71;94412.13;5016770;28;20199;-88
2023/01/19 00:06:53;;;;;;;10.03;8.07;;;;;;;2.53;71.28;94416.53;5017836;28;20214;-87
2023/01/19 00:09:22;;;;;;;9.97;8.07;;;;;;;2.49;71.34;94425.44;5017209;28;20198;-87
2023/01/19 00:11:48;;;;;;;9.40;8.20;;;;;;;2.39;71.58;94423.81;5016921;28;20236;-87
2023/01/19 00:14:16;;;;;;;10.63;7.93;;;;;;;2.44;70.96;94425.91;5017436;28;20706;-88
2023/01/19 00:16:42;;;;;;;8.77;7.47;;;;;;;2.33;70.94;94433.78;5016595;28;20225;-87
2023/01/19 00:19:09;;;;;;;9.60;7.47;;;;;;;2.40;70.21;94429.69;5017431;28;20452;-87
2023/01/19 00:21:35;;;;;;;10.47;7.77;;;;;;;2.36;70.67;94430.97;5018180;28;20292;-87
2023/01/19 00:24:02;;;;;;;11.60;7.70;;;;;;;2.37;70.80;94437.63;5017365;28;20199;-87
2023/01/19 00:26:28;;;;;;;8.60;7.27;;;;;;;2.49;70.72;94438.94;5017216;28;20214;-87
2023/01/19 00:28:54;;;;;;;11.10;7.57;;;;;;;2.55;70.24;94434.97;5017944;28;20221;-88
2023/01/19 00:31:22;;;;;;;9.63;7.53;;;;;;;2.60;69.80;94443.72;5016444;28;20199;-86
2023/01/19 00:33:51;;;;;;;11.50;7.77;;;;;;;2.59;69.75;94446.41;5017501;28;20207;-87
2023/01/19 00:36:18;;;;;;;13.23;8.77;;;;;;;2.58;69.97;94445.63;5018063;28;20211;-87
2023/01/19 00:38:44;;;;;;;8.63;7.67;;;;;;;2.55;70.42;94440.84;5017441;28;20203;-87
2023/01/19 00:41:10;;;;;;;9.87;8.30;;;;;;;2.55;70.32;94447.66;5017448;28;20734;-87
2023/01/19 00:43:36;;;;;;;11.63;8.10;;;;;;;2.49;70.60;94456.72;5018626;28;20206;-88
2023/01/19 00:46:02;;;;;;;9.53;7.37;;;;;;;2.42;70.74;94461.63;5018417;28;20207;-87
2023/01/19 00:48:30;;;;;;;9.23;7.83;;;;;;;2.37;70.88;94458.75;5017416;28;20571;-87
2023/01/19 00:50:57;;;;;;;8.37;7.03;;;;;;;2.43;71.51;94457.34;5011471;28;20203;-87
2023/01/19 00:53:23;;;;;;;8.90;7.20;;;;;;;2.47;70.95;94461.16;5006927;28;20231;-88
2023/01/19 00:55:49;;;;;;;9.43;7.17;;;;;;;2.51;70.70;94461.63;5011317;28;20195;-87
2023/01/19 00:58:16;;;;;;;8.47;7.00;;;;;;;2.56;70.83;94464.50;5017057;28;20357;-86
2023/01/19 01:00:43;;;;;;;8.63;7.40;;;;;;;2.56;70.85;94465.28;5016636;28;20219;-86
2023/01/19 01:03:10;;;;;;;10.50;7.27;;;;;;;2.48;71.45;94467.03;5016406;28;20272;-87
2023/01/19 01:05:40;;;;;;;10.50;7.27;;;;;;;2.50;71.67;94465.16;5019434;28;20199;-88
2023/01/19 01:08:07;;;;;;;8.43;6.40;;;;;;;2.52;71.54;94465.75;5019977;28;20628;-87
2023/01/19 01:10:33;;;;;;;7.67;6.57;;;;;;;2.57;70.69;94468.63;5019737;28;20568;-86
2023/01/19 01:13:00;;;;;;;9.03;6.43;;;;;;;2.63;70.13;94473.09;5020381;28;20479;-87
2023/01/19 01:15:28;;;;;;;8.63;6.87;;;;;;;2.66;70.19;94473.59;5020321;28;20248;-87
2023/01/19 01:17:55;;;;;;;9.00;7.00;;;;;;;2.62;69.98;94476.59;5020633;28;20199;-88
2023/01/19 01:20:25;;;;;;;7.90;6.60;;;;;;;2.60;70.49;94481.84;5019822;28;20222;-87
2023/01/19 01:22:54;;;;;;;8.50;7.17;;;;;;;2.56;70.34;94483.09;5021266;28;20254;-87
2023/01/19 01:25:22;;;;;;;10.20;7.03;;;;;;;2.57;70.44;94478.78;5019816;28;20195;-87
2023/01/19 01:27:49;;;;;;;9.90;7.63;;;;;;;2.60;70.57;94476.75;5020897;28;20227;-87
2023/01/19 01:30:16;;;;;;;7.97;7.07;;;;;;;2.61;70.68;94487.72;5019313;28;20209;-87
2023/01/19 01:32:43;;;;;;;8.07;7.27;;;;;;;2.60;70.60;94483.56;5020848;28;20223;-87
2023/01/19 01:35:11;;;;;;;8.20;7.07;;;;;;;2.59;70.49;94487.06;5020214;28;20203;-87
2023/01/19 01:37:37;;;;;;;8.00;7.20;;;;;;;2.55;70.40;94501.81;4991655;28;20706;-87
2023/01/19 01:40:08;;;;;;;8.87;6.93;;;;;;;2.57;70.70;94502.47;5020202;28;20222;-88
2023/01/19 01:42:35;;;;;;;9.33;7.30;;;;;;;2.54;70.61;94501.97;5018977;28;20247;-87
2023/01/19 01:45:04;;;;;;;9.40;7.23;;;;;;;2.49;70.93;94501.66;5019373;28;20452;-88
2023/01/19 01:47:37;;;;;;;8.77;7.27;;;;;;;2.42;70.93;94499.72;5019468;28;20210;-88
2023/01/19 01:50:10;;;;;;;8.90;7.53;;;;;;;2.41;70.70;94504.94;5019868;28;20202;-87
2023/01/19 01:52:42;;;;;;;9.03;7.60;;;;;;;2.40;70.82;94505.91;5013184;28;20218;-87
2023/01/19 01:55:11;;;;;;;9.13;7.33;;;;;;;2.41;70.99;94508.28;5019984;28;20200;-88
2023/01/19 01:57:41;;;;;;;9.90;7.73;;;;;;;2.45;71.31;94507.97;5019531;28;20206;-87
2023/01/19 02:00:10;;;;;;;8.67;7.30;;;;;;;2.46;71.50;94509.56;5020137;28;20207;-87
2023/01/19 02:02:53;;;;;;;8.57;7.10;;;;;;;2.37;70.80;94513.81;5019674;28;20237;-88
2023/01/19 02:05:24;;;;;;;8.00;6.97;;;;;;;2.36;71.63;94514.75;5020490;28;20294;-88
2023/01/19 02:13:30;;;;;;;7.73;6.30;;;;;;;2.30;71.25;94523.81;5018971;28;20312;-87
2023/01/19 02:15:59;;;;;;;7.80;6.27;;;;;;;2.30;70.37;94518.72;5018293;28;20623;-88
2023/01/19 02:18:28;;;;;;;5.83;5.30;;;;;;;2.30;70.51;94520.47;5019068;28;20619;-88
2023/01/19 02:21:03;;;;;;;7.00;5.43;;;;;;;2.31;70.43;94520.28;5018891;28;20241;-86
2023/01/19 02:23:39;;;;;;;7.10;5.70;;;;;;;2.27;71.20;94526.66;5019258;28;20222;-87
2023/01/19 02:26:10;;;;;;;7.60;5.60;;;;;;;2.19;71.12;94529.13;5017969;28;20198;-87
2023/01/19 02:28:41;;;;;;;6.03;5.43;;;;;;;2.20;71.31;94535.81;5018909;28;20282;-87
2023/01/19 02:31:07;;;;;;;5.37;4.83;;;;;;;2.12;71.14;94534.97;5018722;28;20211;-87
2023/01/19 02:33:36;;;;;;;7.00;5.47;;;;;;;2.11;71.20;94523.22;4970852;28;20243;-87
2023/01/19 02:36:03;;;;;;;6.90;5.63;;;;;;;2.17;71.06;94532.75;5015383;28;20195;-87
2023/01/19 02:38:31;;;;;;;6.67;5.23;;;;;;;2.25;70.47;94536.16;5018476;28;20202;-87
2023/01/19 02:41:01;;;;;;;6.93;5.60;;;;;;;2.23;70.68;94540.59;4998036;28;20215;-87
2023/01/19 02:43:29;;;;;;;9.10;5.17;;;;;;;2.22;70.48;94540.72;5012532;28;20222;-87
2023/01/19 02:45:56;;;;;;;6.50;5.57;;;;;;;2.17;70.80;94533.56;5017941;28;20191;-88
2023/01/19 02:48:22;;;;;;;5.97;5.30;;;;;;;2.20;70.85;94529.94;5017562;28;20222;-88
2023/01/19 02:50:52;;;;;;;5.93;4.53;;;;;;;2.20;70.41;94543.41;5017156;28;20199;-88
2023/01/19 02:53:52;;;;;;;5.80;4.93;;;;;;;2.11;71.24;94546.09;5018063;28;20219;-87
2023/01/19 02:56:42;;;;;;;7.63;4.63;;;;;;;2.02;70.15;94542.69;5000966;28;20211;-87
2023/01/19 02:59:15;;;;;;;5.47;4.60;;;;;;;2.06;70.45;94544.78;5014653;28;20213;-86
2023/01/19 03:02:00;;;;;;;5.20;4.47;;;;;;;2.08;70.28;94547.19;5018114;28;20227;-87
2023/01/19 03:04:33;;;;;;;5.07;4.37;;;;;;;2.14;70.46;94548.28;5017737;28;20206;-87
2023/01/19 03:07:05;;;;;;;7.33;5.40;;;;;;;2.15;70.70;94544.81;5000704;28;20963;-87
2023/01/19 03:09:40;;;;;;;6.33;5.13;;;;;;;2.15;71.25;94543.06;5018973;28;20207;-87
2023/01/19 03:12:17;;;;;;;7.70;5.63;;;;;;;2.11;71.74;94541.81;5003717;28;20211;-87
2023/01/19 03:14:47;;;;;;;7.53;5.47;;;;;;;2.05;72.43;94537.31;5017580;28;20202;-88
2023/01/19 03:17:17;;;;;;;7.97;5.67;;;;;;;2.11;72.21;94541.00;5016780;28;20203;-87
2023/01/19 03:19:48;;;;;;;9.93;6.00;;;;;;;2.18;72.46;94537.69;5008681;28;20200;-87
2023/01/19 03:22:17;;;;;;;7.57;5.90;;;;;;;2.20;72.39;94533.25;4997254;28;20719;-87
2023/01/19 03:24:46;;;;;;;8.03;6.37;;;;;;;2.22;72.26;94531.38;5016157;28;20198;-87
2023/01/19 03:27:17;;;;;;;8.43;5.93;;;;;;;2.14;72.54;94533.06;5016685;28;20210;-87
2023/01/19 03:29:50;;;;;;;7.23;6.13;;;;;;;2.12;72.16;94524.81;5017725;28;20218;-87
2023/01/19 03:32:21;;;;;;;7.03;6.17;;;;;;;2.10;71.93;94535.13;5017047;28;20241;-86
2023/01/19 03:34:49;;;;;;;7.93;6.47;;;;;;;2.06;72.49;94538.91;5017774;28;20279;-87
2023/01/19 03:37:17;;;;;;;7.63;6.20;;;;;;;2.03;72.49;94541.75;5017201;28;20229;-86
2023/01/19 03:39:44;;;;;;;8.07;6.70;;;;;;;2.08;71.86;94542.91;5017109;28;20198;-87
2023/01/19 03:42:16;;;;;;;7.43;6.67;;;;;;;2.04;72.29;94549.22;5015143;28;20219;-88
2023/01/19 03:44:45;;;;;;;8.07;6.43;;;;;;;2.06;72.21;94546.53;5016589;28;20205;-87
2023/01/19 03:47:14;;;;;;;8.63;6.80;;;;;;;2.01;71.76;94546.97;5018172;28;20201;-88
2023/01/19 03:49:43;;;;;;;9.00;6.83;;;;;;;1.97;71.77;94544.88;5018486;28;20202;-88
2023/01/19 03:52:09;;;;;;;9.70;7.23;;;;;;;1.98;71.52;94552.34;5017710;28;20215;-87
2023/01/19 03:54:36;;;;;;;8.83;6.97;;;;;;;1.95;71.65;94552.63;5018257;28;20199;-87
2023/01/19 03:57:02;;;;;;;7.70;6.70;;;;;;;1.96;71.51;94556.75;5015594;28;20199;-87
2023/01/19 03:59:30;;;;;;;7.90;7.10;;;;;;;1.99;71.32;94553.13;5017559;28;20218;-88
2023/01/19 04:01:56;;;;;;;7.83;7.03;;;;;;;1.97;71.45;94557.56;5017318;28;20230;-88
2023/01/19 04:04:24;;;;;;;9.53;7.17;;;;;;;1.94;71.57;94562.94;5017362;28;20199;-87
2023/01/19 04:06:50;;;;;;;7.77;6.60;;;;;;;1.83;71.46;94569.06;5017429;28;20203;-87
2023/01/19 04:09:17;;;;;;;8.00;7.20;;;;;;;1.89;71.43;94560.06;5016976;28;20206;-88
2023/01/19 04:11:43;;;;;;;7.63;6.83;;;;;;;1.89;71.80;94558.31;5016955;28;20223;-87
2023/01/19 04:14:09;;;;;;;10.17;6.87;;;;;;;1.86;71.70;94548.47;5017907;28;20587;-88
2023/01/19 04:16:37;;;;;;;9.37;7.00;;;;;;;1.87;71.57;94561.94;5017154;28;20202;-87
2023/01/19 04:19:04;;;;;;;9.90;7.33;;;;;;;1.88;71.75;94551.66;5017995;28;20203;-87
2023/01/19 04:21:30;;;;;;;8.33;7.30;;;;;;;1.83;71.47;94553.84;5017232;28;20219;-88
2023/01/19 04:23:57;;;;;;;9.07;7.60;;;;;;;1.79;72.08;94549.19;5017347;28;20203;-87
2023/01/19 04:26:24;;;;;;;7.93;6.67;;;;;;;1.80;72.01;94546.50;5018609;28;20234;-87
2023/01/19 04:28:50;;;;;;;7.97;7.10;;;;;;;1.80;72.09;94546.50;5017750;28;20195;-87
2023/01/19 04:31:18;;;;;;;9.10;7.37;;;;;;;1.83;71.64;94545.44;5016724;28;20194;-87
2023/01/19 04:33:45;;;;;;;10.13;7.30;;;;;;;1.76;71.85;94550.28;5017048;28;20238;-87
2023/01/19 04:36:12;;;;;;;9.27;6.77;;;;;;;1.84;71.70;94554.63;5017150;28;20282;-88
2023/01/19 04:38:38;;;;;;;9.10;7.63;;;;;;;1.73;72.05;94553.91;5016442;28;20199;-87
2023/01/19 04:41:05;;;;;;;8.73;7.33;;;;;;;1.70;72.06;94554.22;5019952;28;20219;-88
2023/01/19 04:43:31;;;;;;;8.97;7.57;;;;;;;1.68;71.91;94553.59;5021033;28;20227;-87
2023/01/19 04:45:58;;;;;;;8.33;7.53;;;;;;;1.71;71.57;94552.50;5020792;28;20206;-88
2023/01/19 04:48:24;;;;;;;8.30;7.27;;;;;;;1.74;71.73;94552.97;5020896;28;20203;-87
2023/01/19 04:50:52;;;;;;;13.43;6.70;;;;;;;1.77;71.63;94551.88;5017486;28;20423;-89
2023/01/19 04:53:19;;;;;;;9.53;7.73;;;;;;;1.82;70.73;94557.31;5012422;28;20230;-88
2023/01/19 04:55:45;;;;;;;9.60;7.80;;;;;;;1.85;71.02;94557.03;5021471;28;20225;-87
2023/01/19 04:58:12;;;;;;;11.67;8.40;;;;;;;1.83;70.90;94550.50;5022370;28;20272;-88
2023/01/19 05:00:38;;;;;;;9.37;8.23;;;;;;;1.77;70.32;94554.41;5021025;28;20206;-88
2023/01/19 05:03:05;;;;;;;9.20;8.30;;;;;;;1.77;70.67;94556.97;5021098;28;20230;-88
2023/01/19 05:05:31;;;;;;;9.30;7.93;;;;;;;1.77;70.24;94566.31;5005494;28;20308;-88
2023/01/19 05:07:59;;;;;;;9.63;8.30;;;;;;;1.75;69.92;94566.44;5020505;28;20205;-88
2023/01/19 05:10:26;;;;;;;11.97;8.37;;;;;;;1.79;69.93;94567.75;5015066;28;20234;-87
2023/01/19 05:12:52;;;;;;;10.80;7.93;;;;;;;1.77;70.19;94569.63;5019609;28;21882;-87
2023/01/19 05:15:19;;;;;;;9.47;8.20;;;;;;;1.69;69.87;94569.59;5020277;28;20207;-88
2023/01/19 05:17:45;;;;;;;10.07;8.47;;;;;;;1.73;70.01;94568.38;5020354;28;20217;-87
2023/01/19 05:20:13;;;;;;;10.53;8.57;;;;;;;1.71;70.09;94572.78;5020060;28;20260;-87
2023/01/19 05:22:39;;;;;;;10.47;7.83;;;;;;;1.71;69.80;94577.88;4981929;28;20315;-87
2023/01/19 05:25:08;;;;;;;9.73;8.73;;;;;;;1.72;69.67;94576.91;5022708;28;20290;-87
2023/01/19 05:27:35;;;;;;;11.03;9.13;;;;;;;1.69;69.89;94579.75;5022262;28;20334;-87
2023/01/19 05:30:03;;;;;;;9.00;7.90;;;;;;;1.68;70.12;94581.47;5022298;28;20199;-87
2023/01/19 05:32:30;;;;;;;12.53;8.67;;;;;;;1.68;69.98;94590.84;5022782;28;20250;-88
2023/01/19 05:34:59;;;;;;;10.83;8.97;;;;;;;1.63;70.10;94583.66;5022676;28;20205;-88
2023/01/19 05:37:25;;;;;;;13.37;9.10;;;;;;;1.62;70.61;94589.66;5021982;28;20733;-88
2023/01/19 05:39:52;;;;;;;11.73;8.70;;;;;;;1.65;70.15;94588.59;5022794;28;20207;-88
2023/01/19 05:42:23;;;;;;;9.53;8.40;;;;;;;1.66;70.43;94593.53;5022158;28;20223;-88
2023/01/19 05:47:35;;;;;;;11.10;8.93;;;;;;;1.62;70.21;94593.94;5020874;28;20195;-87
2023/01/19 05:50:07;;;;;;;9.83;8.77;;;;;;;1.57;70.23;94599.44;5021456;28;20206;-88
2023/01/19 05:52:36;;;;;;;11.03;8.97;;;;;;;1.57;70.08;94599.44;5002337;28;20227;-88
2023/01/19 05:55:03;;;;;;;11.47;8.77;;;;;;;1.57;70.45;94602.00;5015152;28;20282;-87
2023/01/19 05:57:30;;;;;;;11.60;8.97;;;;;;;1.55;70.05;94606.41;5019097;28;20202;-87
2023/01/19 06:00:06;;;;;;;11.17;8.40;;;;;;;1.47;70.85;94613.97;5021626;28;20210;-87
2023/01/19 06:02:33;;;;;;;10.37;8.40;;;;;;;1.48;70.74;94613.03;5021974;28;20234;-87
2023/01/19 06:05:03;;;;;;;11.03;9.27;;;;;;;1.49;70.83;94617.16;5021402;28;20205;-87
2023/01/19 06:07:30;;;;;;;12.47;8.90;;;;;;;1.46;70.47;94616.63;5021691;28;20199;-86
2023/01/19 06:09:59;;;;;;;13.87;10.07;;;;;;;1.46;70.72;94619.19;5021895;28;20219;-86
2023/01/19 06:12:26;;;;;;;10.20;8.50;;;;;;;1.45;70.72;94622.66;5020167;28;20318;-87
2023/01/19 06:14:54;;;;;;;12.73;8.73;;;;;;;1.40;70.62;94628.16;5016053;28;20219;-88
2023/01/19 06:17:21;;;;;;;10.43;9.17;;;;;;;1.43;70.36;94634.69;5003129;28;20211;-87
2023/01/19 06:19:47;;;;;;;12.17;8.53;;;;;;;1.38;71.05;94635.09;5002065;28;20222;-86
2023/01/19 06:22:18;;;;;;;12.07;9.10;;;;;;;1.30;70.87;94637.56;5001419;28;20231;-87
2023/01/19 06:24:44;;;;;;;12.37;9.27;;;;;;;1.33;70.71;94642.38;5001316;28;20195;-87
2023/01/19 06:27:12;;;;;;;11.67;9.17;;;;;;;1.35;70.56;94643.78;5001999;28;20208;-87
2023/01/19 06:29:40;;;;;;;11.23;8.70;;;;;;;1.37;70.34;94641.13;5003935;28;20200;-88
2023/01/19 06:32:11;;;;;;;13.33;9.43;;;;;;;1.30;71.05;94645.19;5021200;28;20215;-88
2023/01/19 06:34:39;;;;;;;15.10;9.63;;;;;;;1.34;72.41;94641.44;5021045;28;20229;-88
2023/01/19 06:37:05;;;;;;;15.10;10.97;;;;;;;1.38;72.85;94643.50;5020825;28;20293;-87
2023/01/19 06:39:32;;;;;;;37.37;26.60;;;;;;;1.37;71.07;94649.50;5021026;28;20223;-86
2023/01/19 06:41:58;;;;;;;17.60;14.17;;;;;;;1.44;71.25;94644.69;5020199;28;20586;-88
2023/01/19 06:44:25;;;;;;;13.37;10.33;;;;;;;1.43;70.50;94655.75;5019480;28;20210;-88
2023/01/19 06:46:51;;;;;;;10.00;8.83;;;;;;;1.42;70.81;94650.81;4999685;28;20215;-87
2023/01/19 06:49:19;;;;;;;11.50;9.37;;;;;;;1.42;70.16;94656.69;5001016;28;20203;-88
2023/01/19 06:51:45;;;;;;;10.33;8.90;;;;;;;1.44;70.33;94659.91;5014019;28;20227;-89
2023/01/19 06:54:11;;;;;;;10.87;9.77;;;;;;;1.42;70.18;94655.91;5019666;28;20215;-86
2023/01/19 06:56:38;;;;;;;11.83;9.23;;;;;;;1.41;70.11;94662.72;5018748;28;20213;-87
2023/01/19 06:59:05;;;;;;;11.27;9.07;;;;;;;1.37;70.04;94664.72;5020633;28;20206;-87
2023/01/19 07:01:31;;;;;;;11.60;9.57;;;;;;;1.42;70.10;94664.31;5019993;28;20589;-87
2023/01/19 07:03:58;;;;;;;11.63;9.33;;;;;;;1.45;69.60;94668.31;5019074;28;20195;-86
2023/01/19 07:06:25;;;;;;;11.50;8.93;;;;;;;1.47;69.57;94668.97;5020270;28;20210;-87
2023/01/19 07:08:52;;;;;;;14.33;9.37;;;;;;;1.49;69.72;94667.88;5020332;28;20203;-87
2023/01/19 07:11:18;;;;;;;12.73;9.80;;;;;;;1.44;69.18;94680.19;5020595;28;20209;-87
2023/01/19 07:13:50;;;;;;;13.00;10.13;;;;;;;1.39;68.85;94679.81;5020516;28;20582;-87
2023/01/19 07:16:17;;;;;;;11.40;9.63;;;;;;;1.33;68.78;94688.00;5020021;28;20226;-87
2023/01/19 07:18:44;;;;;;;11.03;9.40;;;;;;;1.30;68.91;94685.75;5017986;28;20205;-87
2023/01/19 07:21:10;;;;;;;22.90;16.83;;;;;;;1.34;68.69;94682.78;5019958;28;20207;-86
2023/01/19 07:23:38;;;;;;;25.33;17.57;;;;;;;1.38;68.77;94681.53;5019787;28;20230;-86
2023/01/19 07:26:05;;;;;;;14.13;11.00;;;;;;;1.43;68.38;94685.41;5020022;28;20199;-87
2023/01/19 07:28:31;;;;;;;12.90;9.77;;;;;;;1.42;67.75;94693.94;5020747;28;20199;-87
2023/01/19 07:30:58;;;;;;;11.90;9.67;;;;;;;1.33;67.65;94688.81;5020955;28;20203;-86
2023/01/19 07:33:25;;;;;;;11.43;8.97;;;;;;;1.34;69.00;94692.13;5021080;28;20215;-86
2023/01/19 07:35:53;;;;;;;12.73;9.30;;;;;;;1.31;68.77;94692.41;5019603;28;20214;-87
2023/01/19 07:38:19;;;;;;;10.33;9.03;;;;;;;1.33;67.82;94698.16;5019939;28;20209;-87
2023/01/19 07:40:47;;;;;;;11.03;9.53;;;;;;;1.31;68.15;94697.47;5019863;28;20234;-86
2023/01/19 07:43:14;;;;;;;11.13;9.03;;;;;;;1.32;67.04;94712.56;5020387;28;20253;-87
2023/01/19 07:45:41;;;;;;;10.90;9.07;;;;;;;1.36;67.40;94703.69;5020576;28;20202;-86
2023/01/19 07:48:07;;;;;;;12.37;9.13;;;;;;;1.39;66.98;94705.97;5020102;28;20271;-87
2023/01/19 07:50:36;;;;;;;10.53;8.47;;;;;;;1.42;66.88;94706.63;5019917;28;20203;-86
2023/01/19 07:53:06;;;;;;;10.50;8.80;;;;;;;1.41;66.38;94707.56;5020658;28;20288;-87
2023/01/19 07:55:32;;;;;;;15.53;9.07;;;;;;;1.44;66.31;94713.16;5020167;28;20213;-86
2023/01/19 07:58:02;;;;;;;11.40;9.03;;;;;;;1.39;66.16;94710.22;5020374;28;20771;-87
2023/01/19 08:00:29;;;;;;;10.83;9.40;;;;;;;1.37;66.42;94720.50;5020197;28;20260;-86
2023/01/19 08:02:59;;;;;;;11.13;8.80;;;;;;;1.43;66.27;94710.75;5020709;28;20719;-86
2023/01/19 08:05:26;;;;;;;10.73;8.83;;;;;;;1.44;66.02;94709.81;5000352;28;20208;-86
2023/01/19 08:07:56;;;;;;;11.77;9.60;;;;;;;1.48;65.93;94717.00;5009159;28;20210;-87
2023/01/19 08:10:25;;;;;;;16.60;8.93;;;;;;;1.49;65.65;94717.81;5019712;28;20676;-87
2023/01/19 08:12:51;;;;;;;13.63;9.40;;;;;;;1.48;65.73;94722.06;5018605;28;20233;-87
2023/01/19 08:15:21;;;;;;;11.83;9.40;;;;;;;1.50;65.44;94724.47;5021466;28;20198;-86
2023/01/19 08:17:54;;;;;;;11.20;9.27;;;;;;;1.51;65.23;94723.53;5024740;28;20213;-87
2023/01/19 08:20:23;;;;;;;13.07;10.63;;;;;;;1.46;65.57;94733.28;5024211;28;20265;-87
2023/01/19 08:22:49;;;;;;;13.03;10.03;;;;;;;1.46;65.28;94735.84;5023181;28;20229;-86
2023/01/19 08:25:16;;;;;;;12.90;9.63;;;;;;;1.45;65.13;94734.25;5023306;28;20199;-88
2023/01/19 08:27:45;;;;;;;12.33;9.97;;;;;;;1.47;64.63;94735.69;5023759;28;20210;-87
2023/01/19 08:30:16;;;;;;;9.83;8.60;;;;;;;1.46;64.61;94736.63;5024035;28;20198;-85
2023/01/19 08:32:44;;;;;;;11.70;9.40;;;;;;;1.33;65.01;94743.78;5023762;28;20215;-86
2023/01/19 08:35:11;;;;;;;11.87;9.57;;;;;;;1.29;64.87;94745.00;5022470;28;20209;-86
2023/01/19 08:37:37;;;;;;;11.07;8.97;;;;;;;1.14;65.07;94751.47;5024173;28;20198;-87
2023/01/19 08:40:08;;;;;;;9.97;8.77;;;;;;;1.21;65.15;94753.28;5024608;28;20203;-86
2023/01/19 08:42:34;;;;;;;11.50;8.87;;;;;;;1.25;64.72;94758.88;5024234;28;20584;-87
2023/01/19 08:45:00;;;;;;;10.03;8.73;;;;;;;1.19;65.09;94756.91;5023009;28;20203;-87
2023/01/19 08:47:27;;;;;;;10.83;8.63;;;;;;;1.19;65.20;94757.69;5004428;28;20203;-87
2023/01/19 08:49:55;;;;;;;11.17;9.30;;;;;;;1.30;64.96;94759.28;5002941;28;20914;-87
2023/01/19 08:52:23;;;;;;;11.20;8.80;;;;;;;1.37;64.50;94761.09;5021023;28;20722;-87
2023/01/19 08:54:49;;;;;;;11.93;8.90;;;;;;;1.53;64.47;94763.03;5022646;28;20203;-85
2023/01/19 08:57:16;;;;;;;11.30;9.13;;;;;;;1.61;64.05;94758.03;5021802;28;20209;-88
2023/01/19 08:59:42;;;;;;;12.30;8.73;;;;;;;1.63;63.78;94766.31;5003438;28;20680;-85
2023/01/19 09:02:10;;;;;;;10.53;8.73;;;;;;;1.64;63.55;94751.88;5003099;28;20224;-87
2023/01/19 09:04:37;;;;;;;12.13;9.17;;;;;;;1.64;63.32;94759.50;5016034;28;20233;-86
2023/01/19 09:07:07;;;;;;;9.63;8.03;;;;;;;1.78;63.24;94755.66;5021472;28;20581;-88
2023/01/19 09:09:36;;;;;;;11.90;8.53;;;;;;;1.76;62.77;94765.94;5022197;28;20687;-86
2023/01/19 09:12:03;;;;;;;9.60;8.60;;;;;;;1.89;62.75;94763.09;5022945;28;20267;-87
2023/01/19 09:14:30;;;;;;;10.33;8.60;;;;;;;1.99;62.72;94758.72;5023997;28;20210;-86
2023/01/19 09:16:57;;;;;;;10.63;8.77;;;;;;;2.08;62.20;94760.41;5023915;28;20210;-86
2023/01/19 09:19:26;;;;;;;10.77;8.70;;;;;;;2.15;61.92;94760.63;5023539;28;20266;-87
2023/01/19 09:21:53;;;;;;;9.50;8.10;;;;;;;2.21;61.32;94757.50;5023146;28;20226;-87
2023/01/19 09:24:21;;;;;;;11.67;8.60;;;;;;;2.25;61.27;94756.28;5024516;28;20222;-88
2023/01/19 09:26:47;;;;;;;10.20;8.73;;;;;;;2.35;61.07;94759.53;5023662;28;20267;-87
2023/01/19 09:29:14;;;;;;;10.97;8.70;;;;;;;2.37;61.08;94766.06;5024047;28;20210;-87
2023/01/19 09:31:40;;;;;;;10.03;7.90;;;;;;;2.27;60.46;94755.19;5022684;28;20737;-87
2023/01/19 09:34:07;;;;;;;9.40;7.83;;;;;;;2.28;60.55;94756.78;5023050;28;20191;-87
2023/01/19 09:36:36;;;;;;;8.90;7.93;;;;;;;2.32;60.23;94758.06;5024073;28;20218;-86
2023/01/19 09:39:03;;;;;;;9.53;8.47;;;;;;;2.30;60.32;94762.53;5023898;28;20218;-87
2023/01/19 09:41:35;;;;;;;9.20;8.10;;;;;;;2.34;59.69;94760.47;5023415;28;20266;-87
2023/01/19 09:44:02;;;;;;;9.93;8.30;;;;;;;2.35;59.57;94760.31;5024087;28;20219;-87
2023/01/19 09:46:37;;;;;;;9.60;8.17;;;;;;;2.34;59.43;94768.88;5022746;28;20625;-86
2023/01/19 09:49:11;;;;;;;40.20;28.83;;;;;;;2.40;59.77;94760.69;5023503;28;20237;-86
2023/01/19 09:51:42;;;;;;;14.57;10.80;;;;;;;2.52;59.83;94765.53;5022364;28;20205;-86
2023/01/19 09:54:14;;;;;;;10.40;7.93;;;;;;;2.56;58.95;94761.75;5023277;28;20298;-86
2023/01/19 09:56:43;;;;;;;9.03;8.07;;;;;;;2.70;59.08;94758.66;5022567;28;20261;-85
2023/01/19 09:59:20;;;;;;;9.23;7.97;;;;;;;2.88;58.48;94756.91;5022478;28;20271;-86
2023/01/19 10:01:59;;;;;;;9.13;7.83;;;;;;;2.95;58.10;94757.88;5002367;28;20680;-86
2023/01/19 10:04:29;;;;;;;9.20;8.07;;;;;;;3.15;57.48;94755.13;5014019;28;20227;-87
2023/01/19 10:07:06;;;;;;;9.80;7.20;;;;;;;3.28;57.08;94752.94;5021919;28;20202;-87
2023/01/19 10:09:40;;;;;;;9.80;7.70;;;;;;;3.33;56.37;94753.28;5022558;28;20202;-87
2023/01/19 10:12:16;;;;;;;9.67;7.93;;;;;;;3.53;56.24;94754.66;5021679;28;20254;-87
2023/01/19 10:14:48;;;;;;;10.10;8.60;;;;;;;3.67;56.32;94760.88;5021401;28;20419;-86
2023/01/19 10:17:28;;;;;;;12.77;10.50;;;;;;;3.66;55.75;94759.28;5021308;28;20205;-87
2023/01/19 10:19:57;;;;;;;7.90;7.10;;;;;;;3.54;54.56;94758.00;5021849;28;20265;-87
2023/01/19 10:22:26;;;;;;;8.77;6.90;;;;;;;3.65;55.57;94757.72;5019396;28;20227;-85
2023/01/19 10:24:56;;;;;;;8.23;7.37;;;;;;;3.74;55.56;94759.31;5021895;28;20214;-87
2023/01/19 10:27:30;;;;;;;9.00;6.60;;;;;;;3.74;54.80;94761.88;5021501;28;20210;-87
2023/01/19 10:29:57;;;;;;;7.67;6.73;;;;;;;3.85;54.80;94759.03;5020905;28;20225;-87
2023/01/19 10:32:25;;;;;;;7.27;6.57;;;;;;;3.74;53.99;94760.13;5019970;28;20238;-87
2023/01/19 10:34:53;;;;;;;6.70;6.03;;;;;;;3.76;54.31;94757.44;5020468;28;20219;-86
2023/01/19 10:37:28;;;;;;;7.20;6.50;;;;;;;3.68;53.36;94760.75;5019223;28;20199;-87
2023/01/19 10:39:57;;;;;;;6.50;5.80;;;;;;;3.67;53.98;94754.06;5020215;28;20213;-86
2023/01/19 10:42:29;;;;;;;7.40;6.30;;;;;;;3.72;54.30;94759.47;5019679;28;20230;-87
2023/01/19 10:44:56;;;;;;;8.10;6.63;;;;;;;3.65;53.82;94757.72;5019985;28;20233;-86
2023/01/19 10:47:31;;;;;;;8.00;6.53;;;;;;;3.66;54.31;94754.19;5020053;28;20467;-86
2023/01/19 10:49:57;;;;;;;7.43;6.40;;;;;;;3.76;54.21;94760.78;5020534;28;20205;-87
2023/01/19 10:55:25;;;;;;;8.63;5.90;;;;;;;3.59;53.07;94750.69;5018252;28;20295;-86
2023/01/19 10:57:53;;;;;;;6.70;6.00;;;;;;;3.79;53.77;94746.94;5017692;28;20213;-87
2023/01/19 11:00:31;;;;;;;6.87;6.17;;;;;;;3.95;54.26;94743.63;5018722;28;20541;-87
2023/01/19 11:02:57;;;;;;;7.73;6.30;;;;;;;4.00;53.39;94747.31;5018666;28;20231;-86
2023/01/19 11:05:28;;;;;;;7.70;5.77;;;;;;;4.19;53.66;94737.78;5018725;28;20229;-87
2023/01/19 11:07:55;;;;;;;6.63;5.83;;;;;;;4.27;52.93;94738.56;5018769;28;20203;-86
2023/01/19 11:10:24;;;;;;;6.50;5.77;;;;;;;4.24;52.59;94738.88;5018322;28;20202;-86
2023/01/19 11:13:03;;;;;;;7.10;5.57;;;;;;;4.18;52.30;94749.72;5016811;28;20227;-87
2023/01/19 11:15:33;;;;;;;6.67;5.60;;;;;;;4.27;52.92;94741.09;5018218;28;20199;-87
2023/01/19 11:18:01;;;;;;;6.03;5.20;;;;;;;4.32;52.03;94743.19;5018023;28;20206;-86
2023/01/19 11:20:30;;;;;;;7.00;5.50;;;;;;;4.38;51.50;94742.56;5018014;28;20203;-87
2023/01/19 11:23:16;;;;;;;6.03;5.40;;;;;;;4.34;51.98;94741.28;5017493;28;20227;-86
2023/01/19 11:25:46;;;;;;;5.73;5.07;;;;;;;4.49;52.21;94740.47;5019783;28;20454;-87
2023/01/19 11:28:18;;;;;;;5.63;4.70;;;;;;;4.51;50.45;94740.31;5019886;28;20207;-86
2023/01/19 11:30:54;;;;;;;5.27;4.77;;;;;;;4.31;50.35;94739.84;5019774;28;20271;-86
2023/01/19 11:33:26;;;;;;;5.73;5.07;;;;;;;4.32;50.79;94733.78;5019033;28;20221;-87
2023/01/19 11:36:02;;;;;;;5.47;4.90;;;;;;;4.23;50.49;94733.97;5020051;28;20199;-87
2023/01/19 11:38:28;;;;;;;9.13;7.10;;;;;;;4.18;50.57;94726.00;5019885;28;20441;-87
2023/01/19 11:40:57;;;;;;;6.97;5.77;;;;;;;4.18;52.03;94724.25;5017796;28;20203;-88
2023/01/19 11:43:28;;;;;;;7.50;5.60;;;;;;;4.31;51.38;94723.75;5019887;28;20231;-87
2023/01/19 11:45:56;;;;;;;5.50;4.73;;;;;;;4.42;50.75;94721.72;5019996;28;20605;-87
2023/01/19 11:48:28;;;;;;;5.40;4.50;;;;;;;4.33;50.73;94716.75;5019844;28;20218;-87
2023/01/19 11:51:03;;;;;;;6.70;5.00;;;;;;;4.18;50.92;94716.59;5013076;28;20211;-88
2023/01/19 11:53:33;;;;;;;8.20;5.20;;;;;;;4.24;51.01;94710.84;5013399;28;20230;-87
2023/01/19 11:56:03;;;;;;;5.70;4.93;;;;;;;4.31;51.12;94716.91;5018958;28;20266;-88
2023/01/19 11:58:37;;;;;;;6.93;5.00;;;;;;;4.15;50.80;94715.16;5012801;28;20262;-87